• Join FlightAware (Why Join?)
  • Login
  • US Flag 
05:48AM EST


 

Airport Tracker/Info


-or-


 

Live Flight TrackerFlight Track Log ✈ EJA221 ✈ 14-Jul-2013 ✈ KPTK - KSBA

Flight Track Log - Related Links

Times and Time Zones

All times are in EDT time to prevent confusion due to time zone crossing. See the EJA221 flight status page for this flight to view local times or setup timezone preferences in your user account.

Time Position Orientation Groundspeed Altitude Reporting Facility
EDT Latitude Longitude Course Direction KTS MPH feet Rate Location/Type
02:17PM 42.6656 -83.3928 136° Southeast 177 204 2,000  Level Cleveland Center
02:18PM 42.6272 -83.3431 136° Southeast 213 245 3,000 840 Climbing Cleveland Center
02:20PM 42.5936 -83.4375 244° Southwest 275 316 4,200 1,500 Climbing Cleveland Center
02:21PM 42.5556 -83.5428 244° Southwest 276 318 6,500 1,800 Climbing Cleveland Center
02:21PM 42.5556 -83.5428 244° Southwest 277 319 6,300 3,180 Descending Cleveland Center
02:22PM 42.5378 -83.6606 258° West 278 320 9,800 2,640 Climbing Cleveland Center
02:23PM 42.5125 -83.7522 250° West 292 336 11,600 1,860 Climbing Cleveland Center
02:24PM 42.4906 -83.8667 255° West 324 373 13,600 1,800 Climbing Cleveland Center
02:25PM 42.4633 -84.0058 255° West 345 397 15,200 1,980 Climbing Cleveland Center
02:26PM 42.4389 -84.1283 255° West 358 412 17,600 2,040 Climbing Cleveland Center
02:27PM 42.4281 -84.2714 264° West 370 426 19,300 1,680 Climbing Cleveland Center
02:28PM 42.4333 -84.4011 273° West 387 445 20,800 1,740 Climbing Chicago Center
02:29PM 42.4367 -84.5489 272° West 393 452 22,700 1,860 Climbing Chicago Center
02:30PM 42.4400 -84.6978 272° West 396 456 24,700 1,920 Climbing Chicago Center
02:31PM 42.4447 -84.8519 272° West 409 471 26,700 1,620 Climbing Chicago Center
02:32PM 42.4475 -85.0056 271° West 410 472 28,100 1,320 Climbing Chicago Center
02:33PM 42.4519 -85.2042 272° West 438 504 29,500 1,260 Climbing Chicago Center
02:34PM 42.4553 -85.3781 272° West 455 524 30,800 1,200 Climbing Chicago Center
02:35PM 42.4478 -85.5592 267° West 474 545 32,000 840 Climbing Chicago Center
02:36PM 42.4236 -85.7364 260° West 477 549 32,600 720 Climbing Chicago Center
02:37PM 42.3969 -85.9136 259° West 479 551 33,600 960 Climbing Chicago Center
02:38PM 42.3717 -86.0911 259° West 479 551 34,600 1,080 Climbing Chicago Center
02:39PM 42.3408 -86.3017 259° West 474 545 35,900 1,020 Climbing Chicago Center
02:40PM 42.3158 -86.4761 259° West 473 544 36,800 1,020 Climbing Chicago Center
02:41PM 42.2875 -86.6603 258° West 474 545 38,100 1,140 Climbing Chicago Center
02:42PM 42.2647 -86.8275 260° West 472 543 39,200 900 Climbing Chicago Center
02:43PM 42.2406 -86.9969 259° West 466 536 40,000 360 Climbing Chicago Center
02:44PM 42.2103 -87.1675 257° West 469 540 40,000  Level Chicago Center
02:45PM 42.1783 -87.3772 258° West 479 551 40,000  Level Chicago Center
02:46PM 42.1514 -87.5536 258° West 485 558 40,000  Level Chicago Center
02:47PM 42.1233 -87.7292 258° West 484 557 40,000  Level Chicago Center
02:48PM 42.0950 -87.9058 258° West 486 559 40,000  Level Chicago Center
02:49PM 42.0667 -88.0822 258° West 487 560 40,000  Level Chicago Center
02:50PM 42.0314 -88.2942 257° West 487 560 40,000  Level Chicago Center
02:51PM 42.0022 -88.4719 258° West 493 567 40,000  Level Chicago Center
02:52PM 41.9719 -88.6458 257° West 488 562 40,000  Level Chicago Center
02:53PM 41.9419 -88.8236 257° West 492 566 40,000  Level Chicago Center
02:54PM 41.9061 -89.0358 257° West 492 566 40,000  Level Chicago Center
02:56PM 41.8756 -89.2119 257° West 489 563 40,000  Level Chicago Center
02:57PM 41.8439 -89.3889 257° West 490 564 40,000  Level Chicago Center
02:58PM 41.8131 -89.5656 257° West 492 566 40,000  Level Chicago Center
02:59PM 41.7817 -89.7444 257° West 492 566 40,000  Level Chicago Center
03:00PM 41.7514 -89.9211 257° West 490 564 40,000  Level Chicago Center
03:01PM 41.7125 -90.1344 256° West 493 567 40,000  Level Chicago Center
03:02PM 41.6797 -90.3147 256° West 500 575 40,000  Level Chicago Center
03:03PM 41.6464 -90.4917 256° West 494 568 40,000  Level Chicago Center
03:04PM 41.6131 -90.6631 255° West 493 567 40,000  Level Chicago Center
03:05PM 41.5739 -90.8736 256° West 490 564 40,000  Level Chicago Center
03:06PM 41.5406 -91.0500 256° West 493 567 40,000  Level Chicago Center
03:07PM 41.5056 -91.2308 256° West 489 563 40,000  Level Chicago Center
03:08PM 41.4728 -91.4014 256° West 494 568 40,000  Level Chicago Center
03:09PM 41.4383 -91.5772 255° West 494 568 40,000  Level Chicago Center
03:10PM 41.3967 -91.7911 256° West 498 573 40,000  Level Chicago Center
03:11PM 41.3611 -91.9669 255° West 496 571 40,000  Level Chicago Center
03:12PM 41.3256 -92.1417 255° West 495 570 40,000  Level Chicago Center
03:13PM 41.2903 -92.3181 255° West 496 571 40,000  Level Chicago Center
03:14PM 41.2503 -92.5128 255° West 499 574 40,000  Level Chicago Center
03:15PM 41.2142 -92.6869 255° West 497 572 40,000  Level Chicago Center
03:16PM 41.1769 -92.8628 254° West 501 577 40,000  Level Chicago Center
03:17PM 41.1553 -92.9689 255° West 499 574 40,000  Level Minneapolis Center
03:18PM 41.1108 -93.1792 254° West 501 577 40,000  Level Minneapolis Center
03:19PM 41.0669 -93.3850 254° West 495 570 40,000  Level Minneapolis Center
03:20PM 41.0297 -93.5611 254° West 501 577 40,000  Level Minneapolis Center
03:21PM 40.9900 -93.7369 253° West 503 579 40,000  Level Minneapolis Center
03:22PM 40.9456 -93.9478 254° West 503 579 40,000  Level Minneapolis Center
03:23PM 40.9033 -94.1250 253° West 506 582 40,000  Level Minneapolis Center
03:24PM 40.8619 -94.3025 253° West 510 587 40,000  Level Minneapolis Center
03:25PM 40.8236 -94.4781 254° West 508 585 40,000  Level Minneapolis Center
03:26PM 40.7792 -94.6736 253° West 504 580 40,000  Level Minneapolis Center
03:27PM 40.7383 -94.8536 253° West 508 585 40,000  Level Minneapolis Center
03:28PM 40.6967 -95.0339 253° West 510 587 40,000  Level Minneapolis Center
03:29PM 40.6542 -95.2139 253° West 512 589 40,000  Level Minneapolis Center
03:30PM 40.6042 -95.4283 253° West 509 586 40,000  Level Minneapolis Center
03:32PM 40.5617 -95.6069 253° West 509 586 40,000  Level Minneapolis Center
03:33PM 40.5206 -95.7836 253° West 505 581 40,000  Level Minneapolis Center
03:34PM 40.4856 -95.9253 252° West 505 581 40,000  Level Minneapolis Center
03:35PM 40.4336 -96.1444 253° West 516 594 40,000  Level Minneapolis Center
03:36PM 40.3886 -96.3250 252° West 518 596 40,000  Level Minneapolis Center
03:37PM 40.3447 -96.5050 252° West 517 595 40,000  Level Minneapolis Center
03:38PM 40.3003 -96.6847 252° West 518 596 40,000  Level Minneapolis Center
03:39PM 40.2467 -96.9006 252° West 518 596 40,000  Level Minneapolis Center
03:40PM 40.2003 -97.0797 251° West 519 597 40,000  Level Minneapolis Center
03:41PM 40.1561 -97.2597 252° West 519 597 40,000  Level Minneapolis Center
03:42PM 40.1128 -97.4281 251° West 521 600 40,000  Level Minneapolis Center
03:43PM 40.0561 -97.6439 251° West 522 601 40,000  Level Minneapolis Center
03:44PM 40.0097 -97.8253 252° West 524 603 40,000  Level Minneapolis Center
03:45PM 39.9619 -98.0078 251° West 528 608 40,000  Level Minneapolis Center
03:46PM 39.9139 -98.1900 251° West 530 610 40,000  Level Minneapolis Center
03:47PM 39.8669 -98.3694 251° West 525 604 40,000  Level Minneapolis Center
03:48PM 39.8186 -98.5483 251° West 524 603 40,000  Level Minneapolis Center
03:49PM 39.7694 -98.7267 250° West 523 602 40,000  Level Minneapolis Center
03:50PM 39.7117 -98.9403 251° West 522 601 40,000  Level Minneapolis Center
03:51PM 39.6733 -99.0831 251° West 521 600 40,000  Level Denver Center
03:52PM 39.6244 -99.2608 250° West 521 600 40,000  Level Denver Center
03:53PM 39.5653 -99.4739 250° West 521 600 40,000  Level Denver Center
03:54PM 39.5067 -99.6842 250° West 518 596 40,000  Level Denver Center
03:55PM 39.4553 -99.8633 250° West 512 589 40,000 240 Level Denver Center
03:56PM 39.4089 -100.0294 250° West 512 589 40,500 600 Climbing Denver Center
03:57PM 39.3539 -100.2214 250° West 511 588 41,300 660 Climbing Denver Center
03:59PM 39.3078 -100.3839 250° West 504 580 41,900 660 Climbing Denver Center
04:00PM 39.2536 -100.5708 250° West 497 572 42,700 480 Climbing Denver Center
04:01PM 39.2072 -100.7300 249° West 494 568 43,000 120 Climbing Denver Center
04:02PM 39.1683 -100.8625 249° West 496 571 43,000  Level Denver Center
04:03PM 39.1069 -101.0736 250° West 491 565 43,000  Level Denver Center
04:04PM 39.0606 -101.2300 249° West 490 564 43,000  Level Denver Center
04:05PM 38.9950 -101.4486 249° West 484 557 43,000  Level Denver Center
04:06PM 38.9489 -101.6022 249° West 482 555 43,000  Level Denver Center
04:07PM 38.8942 -101.7794 248° West 482 555 43,000  Level Denver Center
04:08PM 38.8492 -101.9314 249° West 480 552 43,000  Level Denver Center
04:09PM 38.7950 -102.1083 249° West 478 550 43,000  Level Denver Center
04:10PM 38.7481 -102.2622 249° West 485 558 43,000  Level Denver Center
04:11PM 38.6914 -102.4397 248° West 483 556 43,000  Level Denver Center
04:12PM 38.6450 -102.5917 249° West 481 554 43,000  Level Denver Center
04:13PM 38.5900 -102.7678 248° West 478 550 43,000  Level Denver Center
04:14PM 38.5414 -102.9200 248° West 484 557 43,000  Level Denver Center
04:15PM 38.4942 -103.0736 249° West 486 559 43,000  Level Denver Center
04:16PM 38.4364 -103.2500 247° West 484 557 43,000  Level Denver Center
04:17PM 38.3883 -103.4011 248° West 481 554 43,000  Level Denver Center
04:18PM 38.3358 -103.5658 248° West 476 548 43,000  Level Denver Center
04:19PM 38.2792 -103.7367 247° West 474 545 43,000  Level Denver Center
04:20PM 38.2325 -103.8844 248° West 472 543 43,000  Level Denver Center
04:21PM 38.1764 -104.0544 247° West 470 541 43,000  Level Denver Center
04:23PM 38.1281 -104.2000 247° West 471 542 43,000  Level Denver Center
04:24PM 38.0717 -104.3700 247° West 470 541 43,000  Level Denver Center
04:25PM 38.0233 -104.5142 247° West 467 537 43,000  Level Denver Center
04:26PM 37.9678 -104.6806 247° West 462 532 43,000  Level Denver Center
04:27PM 37.9194 -104.8233 247° West 463 533 43,000  Level Denver Center
04:28PM 37.8622 -104.9917 247° West 466 536 43,000  Level Denver Center
04:29PM 37.8147 -105.1308 247° West 455 524 43,000  Level Denver Center
04:30PM 37.7594 -105.2933 247° West 451 519 43,000  Level Denver Center
04:31PM 37.7106 -105.4328 246° West 454 522 43,000  Level Denver Center
04:32PM 37.6550 -105.5936 246° West 450 518 43,000  Level Denver Center
04:33PM 37.6078 -105.7331 247° West 452 520 43,000  Level Denver Center
04:34PM 37.5500 -105.8972 246° West 457 526 43,000  Level Denver Center
04:35PM 37.4972 -106.0417 245° Southwest 452 520 43,000  Level Denver Center
04:36PM 37.4489 -106.1808 246° West 453 521 43,000  Level Denver Center
04:37PM 37.3919 -106.3431 246° West 455 524 43,000  Level Denver Center
04:38PM 37.3431 -106.4814 246° West 454 522 43,000  Level Denver Center
04:39PM 37.2831 -106.6431 245° Southwest 457 526 43,000  Level Denver Center
04:40PM 37.2344 -106.7825 246° West 456 525 43,000  Level Denver Center
04:41PM 37.1697 -106.9389 243° Southwest 454 522 43,000  Level Denver Center
04:42PM 37.1119 -107.0744 242° Southwest 457 526 43,000  Level Denver Center
04:43PM 37.0522 -107.2058 240° Southwest 456 525 43,000  Level Denver Center
04:44PM 36.9944 -107.3656 246° West 452 520 43,000  Level Denver Center
04:45PM 36.9489 -107.5053 248° West 452 520 43,000  Level Denver Center
04:46PM 36.8942 -107.6686 247° West 457 526 43,000  Level Denver Center
04:47PM 36.8558 -107.7847 248° West 454 522 43,000  Level Denver Center
04:48PM 36.7928 -107.9708 247° West 454 522 43,000  Level Denver Center
04:49PM 36.7478 -108.1075 248° West 447 514 43,000  Level Denver Center
04:50PM 36.7164 -108.2778 257° West 453 521 43,000  Level Denver Center
04:51PM 36.6939 -108.3981 257° West 449 517 43,000  Level Denver Center
04:53PM 36.6575 -108.5939 257° West 453 521 43,000  Level Denver Center
04:54PM 36.6294 -108.7414 257° West 458 527 43,000  Level Denver Center
04:55PM 36.6072 -108.8628 257° West 456 525 43,000  Level Denver Center
04:56PM 36.5700 -109.0547 256° West 450 518 43,000  Level Denver Center
04:57PM 36.5361 -109.2247 256° West 455 524 43,000  Level Denver Center
04:58PM 36.5081 -109.3694 256° West 452 520 43,000  Level Denver Center
04:59PM 36.4750 -109.5367 256° West 450 518 43,000  Level Denver Center
05:00PM 36.4475 -109.6811 257° West 449 517 43,000  Level Denver Center
05:01PM 36.4131 -109.8508 256° West 453 521 43,000  Level Denver Center
05:02PM 36.3839 -109.9942 256° West 450 518 43,000  Level Denver Center
05:03PM 36.3497 -110.1597 256° West 452 520 43,000  Level Denver Center
05:04PM 36.3189 -110.3114 256° West 453 521 43,000  Level Denver Center
05:05PM 36.2892 -110.4617 256° West 451 519 43,000  Level Denver Center
05:06PM 36.2503 -110.6442 255° West 455 524 43,000  Level Denver Center
05:07PM 36.2186 -110.7944 255° West 452 520 43,000  Level Denver Center
05:08PM 36.1811 -110.9747 256° West 452 520 43,000  Level Denver Center
05:09PM 36.1500 -111.1244 256° West 451 519 43,000  Level Denver Center
05:10PM 36.1194 -111.2747 256° West 450 518 43,000  Level Denver Center
05:11PM 36.0939 -111.3936 255° West 449 517 43,000  Level Denver Center
05:12PM 36.0550 -111.5758 255° West 454 522 43,000  Level Denver Center
05:13PM 36.0189 -111.7256 253° West 455 524 43,000  Level Denver Center
05:14PM 35.9756 -111.9053 253° West 455 524 43,000  Level Denver Center
05:15PM 35.9419 -112.0542 254° West 452 520 43,000  Level Denver Center
05:17PM 35.9061 -112.2036 254° West 453 521 43,000  Level Denver Center
05:18PM 35.8700 -112.3539 254° West 455 524 43,000  Level Denver Center
05:18PM 35.8506 -112.4311 253° West 455 524 43,000  Level Los Angeles Center
05:19PM 35.8158 -112.5786 254° West 454 522 43,000  Level Los Angeles Center
05:20PM 35.7794 -112.7253 253° West 453 521 43,000  Level Los Angeles Center
05:21PM 35.7361 -112.9017 253° West 455 524 43,000  Level Los Angeles Center
05:22PM 35.7222 -113.0561 264° West 464 534 43,000  Level Los Angeles Center
05:23PM 35.7244 -113.2144 271° West 469 540 43,000  Level Los Angeles Center
05:24PM 35.7286 -113.3722 272° West 469 540 43,000  Level Los Angeles Center
05:25PM 35.6958 -113.5500 257° West 455 524 43,000  Level Los Angeles Center
05:26PM 35.6525 -113.6947 250° West 455 524 43,000  Level Los Angeles Center
05:27PM 35.6175 -113.8094 249° West 454 522 43,000  Level Los Angeles Center
05:28PM 35.5658 -113.9842 250° West 457 526 43,000  Level Los Angeles Center
05:29PM 35.5211 -114.1289 249° West 457 526 43,000  Level Los Angeles Center
05:30PM 35.4756 -114.2853 250° West 455 524 43,000  Level Los Angeles Center
05:32PM 35.4325 -114.4319 250° West 455 524 43,000  Level Los Angeles Center
05:33PM 35.3769 -114.6083 249° West 461 531 43,000  Level Los Angeles Center
05:34PM 35.3333 -114.7550 250° West 457 526 43,000  Level Los Angeles Center
05:35PM 35.2889 -114.9000 249° West 454 522 43,000  Level Los Angeles Center
05:36PM 35.2439 -115.0439 249° West 452 520 43,000  Level Los Angeles Center
05:37PM 35.1992 -115.1886 249° West 452 520 43,000  Level Los Angeles Center
05:38PM 35.1503 -115.3494 250° West 453 521 43,000  Level Los Angeles Center
05:39PM 35.1050 -115.4922 249° West 453 521 43,000  Level Los Angeles Center
05:40PM 35.0603 -115.6372 249° West 456 525 43,000 -840 Level Los Angeles Center
05:41PM 35.0283 -115.7861 255° West 456 525 41,200 -1,860 Descending Los Angeles Center
05:42PM 34.9928 -115.9664 257° West 456 525 38,800 -1,560 Descending Los Angeles Center
05:43PM 34.9542 -116.1500 256° West 464 534 38,000 -420 Descending Los Angeles Center
05:44PM 34.9219 -116.3067 256° West 474 545 38,000 -540 Level Los Angeles Center
05:45PM 34.8889 -116.4628 256° West 478 550 36,900 -1,500 Descending Los Angeles Center
05:46PM 34.8572 -116.6178 256° West 475 547 34,900 -1,980 Descending Los Angeles Center
05:47PM 34.8239 -116.7753 256° West 478 550 32,900 -1,920 Descending Los Angeles Center
05:48PM 34.7906 -116.9333 256° West 480 552 30,900 -1,440 Descending Los Angeles Center
05:49PM 34.7486 -117.1253 255° West 487 560 30,000 -480 Descending Los Angeles Center
05:50PM 34.7142 -117.2861 255° West 488 562 30,000  Level Los Angeles Center
05:51PM 34.6786 -117.4481 255° West 491 565 30,000  Level Los Angeles Center
05:52PM 34.6436 -117.6097 255° West 493 567 30,000  Level Los Angeles Center
05:53PM 34.6078 -117.7697 255° West 489 563 30,000  Level Los Angeles Center
05:54PM 34.5733 -117.9275 255° West 486 559 30,000  Level Los Angeles Center
05:56PM 34.5442 -118.0558 255° West 490 564 30,000 -540 Level Los Angeles Center
05:57PM 34.4994 -118.2633 255° West 491 565 28,900 -1,740 Descending Los Angeles Center
05:58PM 34.4633 -118.4203 254° West 487 560 26,400 -2,040 Descending Los Angeles Center
05:59PM 34.4336 -118.5472 254° West 492 566 24,800 -1,200 Descending Los Angeles Center
06:00PM 34.3819 -118.7697 254° West 495 570 24,000 -420 Descending Los Angeles Center
06:01PM 34.3550 -118.8947 255° West 488 562 24,000 -1,500 Level Los Angeles Center
06:02PM 34.3442 -119.0622 266° West 421 484 20,700 -3,720 Descending Los Angeles Center
06:03PM 34.3356 -119.1894 265° West 408 470 17,100 -4,500 Descending Los Angeles Center
06:04PM 34.3136 -119.3117 258° West 387 445 13,500 -3,240 Descending Los Angeles Center
06:05PM 34.2778 -119.4303 250° West 353 406 10,700 -1,920 Descending Los Angeles Center
06:05PM 34.2703 -119.4764 259° West 344 396 10,300 -1,140 Descending Los Angeles Center
06:06PM 34.2639 -119.5931 266° West 295 339 8,800 -1,740 Descending Los Angeles Center
06:07PM 34.2708 -119.6878 275° West 316 364 6,800 -1,980 Descending Los Angeles Center
06:08PM 34.3369 -119.7222 337° Northwest 275 316 4,800 -1,500 Descending Los Angeles Center
06:09PM 34.3975 -119.7136 North 240 276 3,700 -1,020 Descending Los Angeles Center
06:10PM 34.4272 -119.7558 310° West 195 224 2,700 -1,440 Descending Los Angeles Center
06:11PM 34.4303 -119.8081 274° West 165 190 800 -1,200 Descending Los Angeles Center
06:13PM 34.4331 -119.8478 275° West 152 175 300 -540 Descending Los Angeles Center
06:14PM 34.4262 -119.8415 North  Level Estimated